Portada
METAR-TAF:

METAR-TAF

Aeroports :

Barquisimeto, Veneçuela

latitud: 10-04N, longitud: 069-19W, altitud: 613 m

Observació

L'informe es va fer fa 12 hores i 32 minuts, a les 21:00 UTC
Vent 9 kt del Est
Temperatura 28°C
Humitat 62%
Pressió 1014 hPa
Visibilitat 10 km o més
Núvols disperses a una alçada de 1600 ft

METAR: SVBM 242100Z 09009KT 9999 SCT016 28/20 Q1014

Hora: 05:32 (09:32 UTC)


TAF: manca

Observacions i pronòstics meteorològics de més de 4000 aeroports (METAR i TAF).

Les estacions disponibles són els punts grocs i vermells al mapa.

Posi el ratolí al punt desitjat per veure el nom de l'estació.

Feu clic per veure les observacions i els pronòstics meteorològics.

Per canviar el mapa: feu clic els botons verds amb una creu de color negre per apropar; al botó verd amb un guió per allunyar la imatge; o en les fletxes verdes per a mapes adjacents.


METAR-TAF: